KLNP

Lonesome Pine Airport

Wise, Virginia, USA
METAR KLNP 201455Z AUTO 19009G17KT 10SM CLR 18/12 A3038 RMK AO2
Observed Flight Rules
Feb-20 @ 14:55 UTC (2 hours ago) Visual Flight Rules
Wind Visibility Clouds
190° at 9 knots
 Gusting to 17 knots
10 miles
  • Clear skies
Temperatures Readings
Current 18°C / 64°F
Dewpoint 12°C / 54°F
Humidity 68%
Altimeter 30.38" Hg
Pressure 1029 hPa
Elevation 817
METAR KLNP 201455Z AUTO 19009G17KT 10SM CLR 18/12 A3038 RMK AO2
Observed Flight Rules
Feb-20 @ 14:55 UTC
(2 hours ago)
VFR
Wind Visibility
190° at 9 knots
 Gusting to 17 knots
10 miles
Clouds
  • Clear skies
Temperature Dewpoint
18°C / 64°F 12°C / 54°F
Humidity Altimeter Pressure
68% 30.38" Hg 1029 hPa